Time;durP1;ratioP1;P1;durP2;ratioP2;P2;SDS_P1;SDS_P2;PMS_P1;PMS_P2;Temp;Humidity;BMP_temperature;BMP_pressure;BME280_temperature;BME280_humidity;BME280_pressure;Samples;Min_cycle;Max_cycle;Signal;HPM_P1;HPM_P2
2022/07/17 00:02:01;;;;;;;8.40;0.90;;;;;;;12.44;55.85;99777.45;106382;1271;22560;-88
2022/07/17 00:04:28;;;;;;;5.30;0.80;;;;;;;12.44;55.83;99775.91;106424;1271;24066;-83
2022/07/17 00:07:04;;;;;;;3.90;0.60;;;;;;;12.44;55.69;99780.39;106283;1274;22586;-86
2022/07/17 00:09:44;;;;;;;6.00;0.80;;;;;;;12.44;55.66;99778.41;106381;1271;22955;-84
2022/07/17 00:12:15;;;;;;;2.30;0.60;;;;;;;12.41;55.75;99784.33;106457;1274;22550;-85
2022/07/17 00:14:50;;;;;;;4.60;0.80;;;;;;;12.37;55.71;99787.63;106500;1272;22576;-83
2022/07/17 00:17:22;;;;;;;4.20;0.60;;;;;;;12.37;55.80;99792.27;106371;1271;22558;-87
2022/07/17 00:19:56;;;;;;;4.30;0.60;;;;;;;12.38;55.73;99795.02;106426;1271;25471;-85
2022/07/17 00:22:24;;;;;;;3.70;0.70;;;;;;;12.43;55.75;99798.14;106174;1274;25477;-86
2022/07/17 00:24:56;;;;;;;6.00;0.70;;;;;;;12.43;55.73;99797.94;106119;1274;25493;-88
2022/07/17 00:27:28;;;;;;;4.20;0.70;;;;;;;12.45;55.62;99800.13;106169;1274;25296;-86
2022/07/17 00:30:00;;;;;;;4.20;0.60;;;;;;;12.47;55.72;99799.27;106149;1275;25239;-85
2022/07/17 00:32:36;;;;;;;4.60;0.70;;;;;;;12.48;55.72;99801.17;106249;1274;24213;-86
2022/07/17 00:35:08;;;;;;;2.80;0.50;;;;;;;12.46;55.68;99800.95;106423;1271;24273;-88
2022/07/17 00:37:46;;;;;;;4.00;0.60;;;;;;;12.45;55.73;99797.26;106495;1271;22557;-88
2022/07/17 00:40:20;;;;;;;3.90;0.70;;;;;;;12.47;55.74;99798.58;106198;1271;22532;-86
2022/07/17 00:43:04;;;;;;;3.90;0.60;;;;;;;12.49;55.70;99801.79;106599;1271;25321;-85
2022/07/17 00:45:53;;;;;;;;;;;;;;;;;;;;;
2022/07/17 00:48:29;;;;;;;3.80;0.70;;;;;;;12.51;55.72;99798.79;106329;1271;22552;-85
2022/07/17 00:51:43;;;;;;;4.30;0.60;;;;;;;12.49;55.70;99800.91;106261;1271;22547;-87
2022/07/17 00:54:19;;;;;;;2.50;0.50;;;;;;;12.43;55.72;99801.54;106485;1271;25366;-86
2022/07/17 00:56:58;;;;;;;3.50;0.70;;;;;;;12.39;55.76;99799.42;106406;1271;24280;-88
2022/07/17 00:59:33;;;;;;;6.30;0.60;;;;;;;12.35;55.88;99805.41;106372;1271;26456;-86
2022/07/17 01:02:09;;;;;;;5.90;0.60;;;;;;;12.28;55.84;99805.36;106175;1272;25533;-84
2022/07/17 01:04:39;;;;;;;3.10;0.80;;;;;;;12.22;55.91;99807.92;106300;1271;24218;-87
2022/07/17 01:07:16;;;;;;;3.10;0.50;;;;;;;12.18;55.90;99806.42;106437;1271;22535;-87
2022/07/17 01:09:48;;;;;;;4.90;0.60;;;;;;;12.19;55.93;99806.88;106423;1271;22540;-89
2022/07/17 01:12:24;;;;;;;2.50;0.60;;;;;;;12.22;55.90;99807.75;106492;1271;25247;-86
2022/07/17 01:15:00;;;;;;;4.50;0.70;;;;;;;12.26;55.90;99810.15;106506;1271;24285;-85
2022/07/17 01:17:30;;;;;;;4.40;0.50;;;;;;;12.30;55.93;99812.40;106418;1271;22560;-86
2022/07/17 01:20:07;;;;;;;3.60;0.80;;;;;;;12.29;55.83;99810.83;106459;1271;25423;-85
2022/07/17 01:22:54;;;;;;;5.30;0.90;;;;;;;12.27;55.95;99815.81;106412;1271;26487;-86
2022/07/17 01:25:29;;;;;;;7.70;0.70;;;;;;;12.22;55.93;99815.09;106385;1272;23938;-88
2022/07/17 01:28:21;;;;;;;4.90;0.70;;;;;;;12.21;55.94;99812.26;106522;1271;22756;-85
2022/07/17 01:31:00;;;;;;;3.30;0.50;;;;;;;12.24;56.01;99815.84;106457;1271;23176;-88
2022/07/17 01:33:30;;;;;;;4.50;0.60;;;;;;;12.27;55.96;99816.89;106513;1271;24231;-83
2022/07/17 01:36:06;;;;;;;3.80;0.50;;;;;;;12.29;55.92;99816.55;106439;1271;25264;-86
2022/07/17 01:38:54;;;;;;;4.40;0.60;;;;;;;12.29;55.97;99814.43;106431;1271;22476;-86
2022/07/17 01:41:24;;;;;;;2.60;0.70;;;;;;;12.32;56.00;99818.69;106441;1271;22542;-91
2022/07/17 01:43:53;;;;;;;4.00;0.50;;;;;;;12.30;55.93;99818.29;106511;1271;25465;-85
2022/07/17 01:46:31;;;;;;;4.40;0.70;;;;;;;12.29;55.96;99819.81;106209;1271;22566;-90
2022/07/17 01:49:02;;;;;;;4.00;0.50;;;;;;;12.26;55.91;99819.95;106479;1271;22541;-88
2022/07/17 01:51:32;;;;;;;5.20;0.90;;;;;;;12.24;55.86;99821.23;106231;1271;25182;-85
2022/07/17 01:54:08;;;;;;;5.00;0.60;;;;;;;12.21;55.82;99822.63;106120;1271;22845;-86
2022/07/17 01:56:45;;;;;;;3.00;0.50;;;;;;;12.20;55.87;99817.52;106157;1271;26846;-84
2022/07/17 01:59:41;;;;;;;6.00;0.70;;;;;;;12.19;55.86;99816.14;106164;1274;24204;-84
2022/07/17 02:02:32;;;;;;;5.00;0.70;;;;;;;12.19;55.94;99816.31;106223;1271;25431;-87
2022/07/17 02:05:05;;;;;;;5.10;0.70;;;;;;;12.17;55.93;99816.06;106570;1271;22825;-84
2022/07/17 02:07:48;;;;;;;3.30;0.50;;;;;;;12.15;55.98;99817.66;106444;1271;25226;-86
2022/07/17 02:10:22;;;;;;;3.60;0.70;;;;;;;12.13;55.95;99823.52;106304;1271;24431;-86
2022/07/17 02:12:57;;;;;;;3.60;0.60;;;;;;;12.12;55.98;99816.26;106432;1271;26479;-88
2022/07/17 02:15:41;;;;;;;;;;;;;;;;;;;;;
2022/07/17 02:18:16;;;;;;;3.20;0.60;;;;;;;12.07;56.07;99818.33;106414;1272;22735;-88
2022/07/17 02:20:56;;;;;;;4.50;0.60;;;;;;;12.06;56.07;99819.70;106448;1271;22587;-92
2022/07/17 02:23:33;;;;;;;3.50;0.70;;;;;;;12.02;55.96;99821.73;106345;1271;22549;-87
2022/07/17 02:26:10;;;;;;;3.40;0.50;;;;;;;12.01;55.98;99822.86;106448;1271;22554;-86
2022/07/17 02:28:45;;;;;;;4.20;0.80;;;;;;;12.01;56.16;99819.16;106338;1274;22624;-86
2022/07/17 02:31:22;;;;;;;3.30;0.70;;;;;;;11.98;56.04;99815.77;106355;1271;24363;-87
2022/07/17 02:33:57;;;;;;;5.60;0.60;;;;;;;11.96;56.26;99821.60;106467;1271;22532;-86
2022/07/17 02:36:29;;;;;;;6.80;0.70;;;;;;;11.96;56.19;99819.48;106476;1271;22838;-83
2022/07/17 02:39:12;;;;;;;6.30;0.70;;;;;;;11.96;56.22;99817.72;106323;1271;24233;-86
2022/07/17 02:41:52;;;;;;;4.10;0.60;;;;;;;11.94;56.19;99817.47;106312;1271;24408;-86
2022/07/17 02:44:41;;;;;;;;;;;;;;;;;;;;;
2022/07/17 02:47:43;;;;;;;3.90;0.60;;;;;;;11.89;56.31;99819.39;106410;1271;25669;-87
2022/07/17 02:50:46;;;;;;;5.80;0.80;;;;;;;11.85;56.28;99826.95;106479;1271;22534;-87
2022/07/17 02:53:36;;;;;;;4.70;0.70;;;;;;;11.80;56.48;99829.03;106314;1271;22557;-90
2022/07/17 02:56:27;;;;;;;3.50;0.60;;;;;;;11.77;56.46;99828.02;106503;1271;24281;-84
2022/07/17 02:59:12;;;;;;;4.00;0.60;;;;;;;11.71;56.57;99828.91;106370;1271;22563;-86
2022/07/17 03:02:00;;;;;;;3.20;0.50;;;;;;;11.66;56.52;99826.19;106463;1271;22529;-86
2022/07/17 03:05:38;;;;;;;3.40;0.70;;;;;;;11.60;56.80;99830.34;106167;1271;22726;-86
2022/07/17 03:08:24;;;;;;;2.70;0.70;;;;;;;11.57;56.71;99834.83;106280;1271;23697;-86
2022/07/17 03:11:00;;;;;;;4.10;0.70;;;;;;;11.55;56.75;99830.83;106427;1271;22560;-88
2022/07/17 03:13:52;;;;;;;6.00;0.80;;;;;;;11.56;56.60;99835.75;106298;1274;22997;-85
2022/07/17 03:16:37;;;;;;;4.00;0.70;;;;;;;11.59;56.67;99842.74;106260;1274;22555;-86
2022/07/17 03:19:38;;;;;;;;;;;;;;;;;;;;;
2022/07/17 03:26:09;;;;;;;5.00;0.80;;;;;;;11.72;56.77;99855.81;106469;1271;24202;-86
2022/07/17 03:29:16;;;;;;;6.50;0.70;;;;;;;11.77;56.82;99858.84;106493;1271;22557;-89
2022/07/17 03:32:20;;;;;;;5.00;0.50;;;;;;;11.80;56.84;99866.33;106520;1271;25229;-89
2022/07/17 03:35:41;;;;;;;4.70;0.60;;;;;;;11.83;56.79;99867.79;106350;1271;23940;-88
2022/07/17 03:39:05;;;;;;;3.50;0.70;;;;;;;11.87;56.76;99868.25;106396;1271;24327;-86
2022/07/17 03:42:11;;;;;;;;;;;;;;;;;;;;;
2022/07/17 03:45:50;;;;;;;3.90;0.60;;;;;;;11.88;57.16;99869.77;106519;1271;24372;-85
2022/07/17 03:48:33;;;;;;;5.90;0.70;;;;;;;11.95;57.17;99868.05;106442;1271;22839;-87
2022/07/17 03:51:24;;;;;;;5.00;0.90;;;;;;;12.00;57.05;99866.34;106510;1271;22551;-87
2022/07/17 03:54:18;;;;;;;4.30;1.10;;;;;;;12.03;56.94;99870.39;106296;1271;25356;-85
2022/07/17 04:01:04;;;;;;;7.00;0.90;;;;;;;12.21;57.28;99871.37;105493;1286;22625;-87
2022/07/17 04:03:55;;;;;;;5.30;0.80;;;;;;;12.28;57.19;99874.65;106206;1271;23913;-86
2022/07/17 04:10:57;;;;;;;4.90;0.90;;;;;;;12.36;57.26;99876.08;105947;1280;25696;-83
2022/07/17 04:13:57;;;;;;;6.70;0.80;;;;;;;12.38;57.39;99878.43;105519;1280;22825;-84
2022/07/17 04:20:13;;;;;;;6.30;1.20;;;;;;;12.49;57.55;99873.80;106019;1277;22564;-86
2022/07/17 04:23:17;;;;;;;5.10;0.80;;;;;;;12.53;57.44;99873.34;106486;1274;24256;-87
2022/07/17 04:25:56;;;;;;;5.20;0.70;;;;;;;12.58;57.44;99872.64;106134;1275;22547;-86
2022/07/17 04:28:36;;;;;;;5.30;0.80;;;;;;;12.64;57.47;99880.12;106095;1277;24283;-87
2022/07/17 04:31:11;;;;;;;8.20;0.70;;;;;;;12.70;57.42;99877.52;106091;1274;24309;-86
2022/07/17 04:33:43;;;;;;;5.20;0.90;;;;;;;12.78;57.43;99880.06;106115;1277;22610;-85
2022/07/17 04:36:21;;;;;;;5.70;0.80;;;;;;;12.86;57.51;99881.30;106102;1274;22580;-85
2022/07/17 04:39:09;;;;;;;;;;;;;;;;;;;;;
2022/07/17 04:42:13;;;;;;;3.40;0.80;;;;;;;13.03;57.54;99883.73;106280;1277;22850;-86
2022/07/17 04:44:46;;;;;;;5.80;1.00;;;;;;;13.09;57.49;99881.67;106147;1274;24012;-86
2022/07/17 04:47:23;;;;;;;6.10;1.10;;;;;;;13.18;57.62;99885.70;106176;1274;22573;-86
2022/07/17 04:53:37;;;;;;;4.30;1.00;;;;;;;13.43;57.55;99895.59;105790;1281;22864;-86
2022/07/17 04:56:08;;;;;;;5.90;1.10;;;;;;;13.53;57.57;99893.95;105525;1281;24253;-83
2022/07/17 04:58:41;;;;;;;6.00;1.00;;;;;;;13.66;57.61;99896.62;105713;1281;22565;-88
2022/07/17 05:02:25;;;;;;;5.10;0.90;;;;;;;13.86;57.64;99903.42;105554;1285;25318;-86
2022/07/17 05:05:00;;;;;;;6.10;1.00;;;;;;;14.02;57.50;99903.11;105299;1285;23976;-85
2022/07/17 05:07:36;;;;;;;6.50;1.10;;;;;;;14.13;57.28;99908.23;105245;1284;23956;-86
2022/07/17 05:10:45;;;;;;;6.60;1.00;;;;;;;14.29;57.45;99910.48;105416;1284;25734;-85
2022/07/17 05:13:17;;;;;;;7.70;1.10;;;;;;;14.40;57.33;99911.11;105449;1285;23291;-86
2022/07/17 05:15:49;;;;;;;7.80;0.90;;;;;;;14.53;57.41;99909.79;105219;1286;22569;-85
2022/07/17 05:18:28;;;;;;;7.60;0.90;;;;;;;14.72;57.41;99911.95;105318;1286;22848;-85
2022/07/17 05:21:03;;;;;;;6.30;1.00;;;;;;;14.89;57.35;99915.29;105496;1285;22568;-85
2022/07/17 05:23:35;;;;;;;5.60;0.90;;;;;;;15.05;57.17;99911.92;105367;1285;24628;-90
2022/07/17 05:26:11;;;;;;;4.90;0.80;;;;;;;15.21;57.27;99909.60;105476;1286;22585;-88
2022/07/17 05:28:49;;;;;;;5.20;0.80;;;;;;;15.29;56.92;99910.75;105223;1285;25267;-85
2022/07/17 05:31:24;;;;;;;5.20;0.90;;;;;;;15.38;56.98;99912.23;105684;1282;23919;-86
2022/07/17 05:33:56;;;;;;;8.50;1.10;;;;;;;15.55;57.06;99914.32;106021;1274;22059;-87
2022/07/17 05:36:31;;;;;;;8.60;0.90;;;;;;;15.68;57.04;99919.52;106193;1274;24205;-86
2022/07/17 05:39:10;;;;;;;5.70;0.80;;;;;;;15.81;56.96;99919.44;106159;1274;22601;-86
2022/07/17 05:41:45;;;;;;;6.20;1.10;;;;;;;15.84;56.75;99921.55;106085;1274;25208;-85
2022/07/17 05:44:25;;;;;;;5.50;0.90;;;;;;;15.84;56.72;99921.88;106388;1274;25115;-84
2022/07/17 05:47:07;;;;;;;6.50;1.00;;;;;;;15.88;56.90;99921.34;106154;1274;24288;-86
2022/07/17 05:49:39;;;;;;;5.90;0.90;;;;;;;15.94;56.96;99925.04;106128;1277;22578;-88
2022/07/17 05:52:14;;;;;;;5.20;1.00;;;;;;;16.06;57.03;99930.73;106088;1274;25251;-87
2022/07/17 05:54:48;;;;;;;7.20;1.20;;;;;;;16.13;56.86;99929.38;106128;1277;25303;-85
2022/07/17 05:57:17;;;;;;;6.80;1.10;;;;;;;16.17;56.83;99930.16;106256;1275;22786;-85
2022/07/17 05:59:54;;;;;;;7.00;1.20;;;;;;;16.23;56.83;99935.10;106046;1274;22712;-85
2022/07/17 06:02:37;;;;;;;7.50;1.00;;;;;;;16.33;56.72;99934.98;106240;1274;25313;-87
2022/07/17 06:05:14;;;;;;;7.90;1.20;;;;;;;16.39;56.59;99932.45;105879;1274;22560;-88
2022/07/17 06:07:47;;;;;;;6.90;0.80;;;;;;;16.45;56.72;99933.73;106217;1274;24117;-87
2022/07/17 06:14:38;;;;;;;5.80;0.80;;;;;;;16.84;56.46;99942.09;105793;1281;25248;-87
2022/07/17 06:17:08;;;;;;;5.80;0.80;;;;;;;16.86;56.41;99944.80;105660;1281;22761;-86
2022/07/17 06:19:41;;;;;;;7.10;1.30;;;;;;;16.89;56.11;99948.29;105533;1281;22548;-87
2022/07/17 06:22:13;;;;;;;5.90;0.90;;;;;;;16.84;55.91;99949.30;105663;1283;24209;-88
2022/07/17 06:24:52;;;;;;;5.20;0.80;;;;;;;16.83;56.06;99950.06;105311;1281;25714;-89
2022/07/17 06:27:30;;;;;;;5.80;0.80;;;;;;;16.93;56.13;99955.20;105280;1284;25521;-86
2022/07/17 06:30:11;;;;;;;8.00;1.00;;;;;;;16.99;56.00;99954.65;105671;1281;24192;-85
2022/07/17 06:32:55;;;;;;;7.30;1.00;;;;;;;17.09;55.94;99957.03;105711;1281;22537;-89
2022/07/17 06:35:25;;;;;;;6.70;0.90;;;;;;;17.11;55.68;99956.02;105464;1283;26005;-88
2022/07/17 06:38:05;;;;;;;5.10;1.00;;;;;;;17.22;56.27;99953.61;105366;1282;25323;-85
2022/07/17 06:40:42;;;;;;;7.60;1.00;;;;;;;17.44;55.91;99956.73;105709;1281;22794;-86
2022/07/17 06:43:15;;;;;;;5.70;0.80;;;;;;;17.63;56.32;99960.48;105772;1284;22671;-88
2022/07/17 06:45:42;;;;;;;6.10;0.60;;;;;;;17.80;55.65;99958.31;105325;1282;26467;-86
2022/07/17 06:48:13;;;;;;;6.30;0.90;;;;;;;17.84;55.41;99959.93;105349;1283;24907;-87
2022/07/17 06:50:45;;;;;;;5.50;0.90;;;;;;;17.81;55.24;99959.27;105706;1274;22714;-87
2022/07/17 06:53:38;;;;;;;7.30;1.10;;;;;;;17.81;55.43;99959.13;106075;1274;25283;-86
2022/07/17 06:56:16;;;;;;;5.70;0.80;;;;;;;17.94;55.28;99963.00;106188;1274;25362;-85
2022/07/17 06:58:54;;;;;;;6.60;0.90;;;;;;;17.99;55.59;99964.04;106387;1274;22612;-87
2022/07/17 07:01:26;;;;;;;6.90;0.80;;;;;;;18.15;54.92;99963.30;106215;1274;22656;-86
2022/07/17 07:04:01;;;;;;;8.10;1.10;;;;;;;18.14;55.24;99959.79;106139;1274;22548;-88
2022/07/17 07:06:44;;;;;;;5.30;0.80;;;;;;;18.24;55.05;99963.05;106139;1274;24187;-88
2022/07/17 07:09:32;;;;;;;6.20;0.80;;;;;;;18.31;55.23;99961.67;105998;1277;22544;-88
2022/07/17 07:12:10;;;;;;;8.10;1.20;;;;;;;18.60;55.59;99964.52;106077;1274;22532;-88
2022/07/17 07:14:51;;;;;;;5.10;0.90;;;;;;;18.84;55.04;99962.30;106080;1275;22575;-85
2022/07/17 07:17:32;;;;;;;5.70;0.60;;;;;;;18.96;55.28;99952.76;106136;1275;24236;-85
2022/07/17 07:20:22;;;;;;;6.70;0.80;;;;;;;19.23;55.15;99953.29;106182;1274;22700;-87
2022/07/17 07:23:17;;;;;;;5.10;0.80;;;;;;;19.50;55.28;99946.94;106156;1275;24293;-91
2022/07/17 07:26:30;;;;;;;6.10;0.80;;;;;;;19.67;54.94;99950.33;106271;1274;24209;-86
2022/07/17 07:29:18;;;;;;;3.20;0.60;;;;;;;19.85;54.80;99949.93;106243;1274;24220;-87
2022/07/17 07:32:06;;;;;;;5.80;0.90;;;;;;;19.83;53.96;99952.14;106246;1274;22763;-86
2022/07/17 07:35:16;;;;;;;;;;;;;;;;;;;;;
2022/07/17 07:38:21;;;;;;;5.70;0.80;;;;;;;19.78;53.70;99950.59;106154;1274;24247;-89
2022/07/17 07:41:05;;;;;;;5.80;0.90;;;;;;;19.70;54.00;99944.10;105953;1274;22557;-90
2022/07/17 07:44:15;;;;;;;7.80;1.10;;;;;;;19.76;53.69;99943.54;106067;1274;25124;-88
2022/07/17 07:47:29;;;;;;;7.90;0.90;;;;;;;19.98;54.13;99941.05;106260;1274;24235;-90
2022/07/17 07:50:00;;;;;;;5.20;0.70;;;;;;;20.20;53.24;99943.04;106219;1274;22660;-87
2022/07/17 07:52:29;;;;;;;6.40;0.70;;;;;;;20.15;52.83;99940.58;106057;1274;22610;-87
2022/07/17 07:55:01;;;;;;;5.90;0.80;;;;;;;20.14;53.09;99941.61;106170;1274;22556;-91
2022/07/17 07:57:30;;;;;;;3.80;0.80;;;;;;;20.19;52.62;99942.55;106259;1275;25486;-85
2022/07/17 08:00:27;;;;;;;7.10;1.20;;;;;;;20.17;52.32;99942.74;106222;1274;22701;-89
2022/07/17 08:02:53;;;;;;;6.90;0.90;;;;;;;20.16;52.84;99939.23;106214;1274;22603;-85
2022/07/17 08:05:20;;;;;;;5.70;0.70;;;;;;;20.21;52.50;99947.27;106802;1275;25245;-87
2022/07/17 08:07:47;;;;;;;5.90;0.80;;;;;;;19.95;52.19;99946.58;106150;1274;25587;-86
2022/07/17 08:10:18;;;;;;;5.80;0.60;;;;;;;19.77;52.80;99947.23;106117;1274;22624;-87
2022/07/17 08:12:53;;;;;;;6.30;0.80;;;;;;;19.87;51.73;99952.91;105976;1274;22613;-88
2022/07/17 08:15:25;;;;;;;6.20;0.90;;;;;;;19.94;52.03;99953.15;106143;1274;25424;-86
2022/07/17 08:17:54;;;;;;;4.70;0.70;;;;;;;20.23;52.59;99955.40;106286;1274;22933;-88
2022/07/17 08:20:23;;;;;;;5.60;0.70;;;;;;;20.58;52.55;99959.04;106139;1274;22779;-87
2022/07/17 08:22:50;;;;;;;5.80;0.70;;;;;;;20.88;52.07;99955.42;106166;1276;25523;-87
2022/07/17 08:25:19;;;;;;;4.70;0.90;;;;;;;20.69;50.89;99965.36;106358;1274;24152;-92
2022/07/17 08:27:48;;;;;;;4.30;0.70;;;;;;;20.45;51.31;99968.40;106234;1274;22536;-91
2022/07/17 08:30:20;;;;;;;3.80;0.60;;;;;;;20.38;50.42;99967.54;106343;1274;22601;-89
2022/07/17 08:32:52;;;;;;;6.00;0.90;;;;;;;20.04;50.26;99971.77;106332;1274;22774;-90
2022/07/17 08:35:24;;;;;;;6.50;1.00;;;;;;;20.23;51.77;99964.64;106173;1274;25338;-87
2022/07/17 08:37:54;;;;;;;4.50;0.70;;;;;;;20.66;52.14;99967.24;106111;1275;25325;-91
2022/07/17 08:40:25;;;;;;;5.30;0.90;;;;;;;21.10;51.86;99965.48;106067;1274;26494;-87
2022/07/17 08:42:55;;;;;;;6.60;1.00;;;;;;;21.48;51.85;99968.17;106094;1275;22739;-87
2022/07/17 08:45:30;;;;;;;5.90;0.90;;;;;;;21.67;51.68;99959.06;106213;1274;22532;-87
2022/07/17 08:48:02;;;;;;;5.00;0.90;;;;;;;21.67;51.27;99963.45;106219;1277;22549;-85
2022/07/17 08:50:35;;;;;;;5.60;1.00;;;;;;;21.78;51.31;99968.27;106124;1274;25629;-87
2022/07/17 08:53:06;;;;;;;5.70;0.70;;;;;;;21.80;50.88;99973.66;106725;1274;22690;-86
2022/07/17 08:55:36;;;;;;;4.60;0.70;;;;;;;21.45;49.98;99980.78;106583;1274;22756;-87
2022/07/17 08:58:08;;;;;;;4.40;0.70;;;;;;;21.07;49.85;99986.64;106449;1274;25439;-89
2022/07/17 09:00:40;;;;;;;6.10;0.70;;;;;;;20.92;50.01;99988.73;106043;1274;23158;-88
2022/07/17 09:03:08;;;;;;;5.30;0.60;;;;;;;20.96;50.13;99989.08;106391;1274;25562;-91
2022/07/17 09:05:38;;;;;;;6.60;0.80;;;;;;;20.91;49.32;99987.05;106134;1274;22561;-89
2022/07/17 09:08:08;;;;;;;5.20;0.60;;;;;;;20.86;50.32;99984.23;106521;1274;25338;-86
2022/07/17 09:10:43;;;;;;;5.00;0.50;;;;;;;20.99;50.46;99987.67;106461;1274;22694;-89
2022/07/17 09:13:20;;;;;;;5.50;0.90;;;;;;;20.83;49.15;99990.91;106302;1275;22847;-88
2022/07/17 09:16:06;;;;;;;4.00;0.70;;;;;;;20.84;49.85;99990.55;106274;1274;23944;-88
2022/07/17 09:18:59;;;;;;;3.40;0.70;;;;;;;21.10;49.35;99984.70;106330;1274;24286;-89
2022/07/17 09:21:33;;;;;;;4.00;0.70;;;;;;;21.29;49.78;99981.53;106300;1274;24406;-85
2022/07/17 09:24:05;;;;;;;4.30;0.80;;;;;;;21.49;49.94;99977.48;106213;1274;22560;-86
2022/07/17 09:26:35;;;;;;;4.00;0.70;;;;;;;21.46;49.45;99977.25;107352;1274;25539;-92
2022/07/17 09:29:03;;;;;;;3.90;0.60;;;;;;;21.44;49.20;99978.17;106314;1274;22646;-88
2022/07/17 09:31:32;;;;;;;4.80;0.80;;;;;;;21.46;48.82;99975.80;106093;1273;25339;-85
2022/07/17 09:34:03;;;;;;;3.50;0.60;;;;;;;21.61;49.21;99973.90;106359;1274;22627;-87
2022/07/17 09:36:37;;;;;;;5.50;0.70;;;;;;;21.80;48.84;99969.86;106107;1274;22842;-84
2022/07/17 09:39:10;;;;;;;3.00;0.70;;;;;;;21.98;48.91;99969.34;106105;1274;22598;-84
2022/07/17 09:41:42;;;;;;;5.70;0.90;;;;;;;22.11;48.53;99969.14;106076;1274;24386;-87
2022/07/17 09:44:13;;;;;;;5.80;0.80;;;;;;;21.94;47.36;99967.29;105793;1277;25442;-83
2022/07/17 09:46:48;;;;;;;4.50;0.80;;;;;;;21.98;48.87;99973.33;106402;1274;24366;-84
2022/07/17 09:49:16;;;;;;;5.70;0.90;;;;;;;22.13;48.18;99967.33;106181;1274;24199;-88
2022/07/17 09:51:52;;;;;;;5.20;0.60;;;;;;;22.15;48.30;99965.88;106209;1274;22556;-87
2022/07/17 09:54:22;;;;;;;4.30;0.70;;;;;;;22.29;48.50;99961.78;106190;1274;24742;-85
2022/07/17 09:56:58;;;;;;;7.70;1.00;;;;;;;22.52;48.55;99967.41;106185;1274;26476;-86
2022/07/17 09:59:31;;;;;;;3.90;0.70;;;;;;;22.70;48.49;99963.92;106053;1275;25118;-84
2022/07/17 10:02:21;;;;;;;6.50;0.80;;;;;;;22.81;48.46;99962.23;106255;1274;25394;-86
2022/07/17 10:04:48;;;;;;;6.50;1.00;;;;;;;22.63;47.06;99963.86;106313;1274;24893;-86
2022/07/17 10:07:20;;;;;;;6.40;1.10;;;;;;;22.30;47.26;99959.88;106106;1275;25502;-86
2022/07/17 10:09:49;;;;;;;3.30;0.70;;;;;;;22.37;47.96;99960.31;106142;1274;22580;-86
2022/07/17 10:12:31;;;;;;;6.80;0.90;;;;;;;22.54;47.39;99957.20;106288;1275;22668;-87
2022/07/17 10:15:07;;;;;;;4.90;0.80;;;;;;;22.61;47.70;99956.95;106062;1274;22575;-84
2022/07/17 10:17:36;;;;;;;5.90;1.10;;;;;;;22.73;46.60;99953.45;105820;1275;22725;-85
2022/07/17 10:20:10;;;;;;;5.70;0.80;;;;;;;22.67;47.22;99951.70;106343;1274;24364;-87
2022/07/17 10:22:46;;;;;;;5.70;0.90;;;;;;;22.85;47.24;99951.61;105969;1275;25296;-84
2022/07/17 10:25:22;;;;;;;3.40;0.60;;;;;;;23.16;47.41;99949.52;106082;1274;24300;-82
2022/07/17 10:28:01;;;;;;;6.80;1.00;;;;;;;23.51;47.39;99949.23;106154;1274;24186;-85
2022/07/17 10:30:33;;;;;;;3.20;0.60;;;;;;;23.79;47.07;99946.66;106043;1274;22761;-86
2022/07/17 10:33:08;;;;;;;6.00;1.00;;;;;;;23.75;46.26;99949.20;106054;1275;23057;-82
2022/07/17 10:35:52;;;;;;;5.20;1.20;;;;;;;23.58;46.23;99955.27;106071;1274;25327;-86
2022/07/17 10:38:22;;;;;;;5.50;0.80;;;;;;;23.51;46.53;99960.72;106118;1274;25303;-88
2022/07/17 10:41:00;;;;;;;4.10;0.80;;;;;;;23.55;46.41;99956.39;106161;1274;24214;-85
2022/07/17 10:43:49;;;;;;;5.70;0.90;;;;;;;23.63;45.37;99959.15;106167;1274;22589;-87
2022/07/17 10:46:24;;;;;;;5.90;0.90;;;;;;;23.49;45.80;99953.05;106127;1274;25223;-85
2022/07/17 10:48:51;;;;;;;4.30;0.80;;;;;;;23.59;45.71;99960.69;105954;1274;25238;-84
2022/07/17 10:51:33;;;;;;;6.30;1.00;;;;;;;23.58;46.45;99951.31;106233;1274;22652;-85
2022/07/17 10:54:03;;;;;;;5.40;0.90;;;;;;;23.81;45.82;99947.81;106111;1274;22761;-85
2022/07/17 10:56:44;;;;;;;8.30;0.80;;;;;;;23.60;44.55;99953.86;106123;1274;22628;-88
2022/07/17 10:59:16;;;;;;;5.50;0.90;;;;;;;23.25;44.79;99948.28;106137;1274;25307;-84
2022/07/17 11:01:42;;;;;;;4.20;0.80;;;;;;;23.02;45.25;99949.71;105989;1274;22560;-87
2022/07/17 11:04:08;;;;;;;6.20;0.90;;;;;;;23.07;44.75;99952.30;106732;1275;22765;-83
2022/07/17 11:06:44;;;;;;;4.40;0.60;;;;;;;23.19;45.73;99945.73;106103;1274;22691;-88
2022/07/17 11:09:20;;;;;;;4.00;0.80;;;;;;;23.34;45.02;99944.34;105963;1274;22566;-86
2022/07/17 11:11:52;;;;;;;6.00;0.90;;;;;;;23.36;45.18;99947.61;106071;1274;25277;-84
2022/07/17 11:14:31;;;;;;;8.00;0.80;;;;;;;23.48;44.73;99945.93;106105;1274;22592;-87
2022/07/17 11:17:02;;;;;;;6.00;0.90;;;;;;;23.36;44.22;99943.41;106190;1274;24786;-90
2022/07/17 11:19:46;;;;;;;5.50;0.80;;;;;;;23.39;44.67;99941.44;106017;1274;22695;-88
2022/07/17 11:22:26;;;;;;;6.70;0.80;;;;;;;23.45;45.06;99939.70;106054;1274;25371;-83
2022/07/17 11:25:19;;;;;;;7.60;1.10;;;;;;;23.61;43.93;99945.32;106040;1274;22619;-91
2022/07/17 11:28:02;;;;;;;5.90;0.90;;;;;;;23.46;44.21;99941.87;106152;1274;22754;-88
2022/07/17 11:30:37;;;;;;;4.40;0.60;;;;;;;23.39;44.07;99937.59;106041;1274;24761;-85
2022/07/17 11:33:27;;;;;;;4.70;0.60;;;;;;;23.38;44.36;99939.48;106468;1274;23986;-84
2022/07/17 11:36:13;;;;;;;4.80;0.60;;;;;;;23.44;44.53;99941.84;106654;1274;22554;-88
2022/07/17 11:38:54;;;;;;;5.50;0.70;;;;;;;23.62;43.86;99935.23;106139;1274;24246;-87
2022/07/17 11:42:03;;;;;;;4.20;0.70;;;;;;;23.55;44.05;99931.45;106071;1274;25394;-86
2022/07/17 11:44:47;;;;;;;3.50;0.60;;;;;;;23.34;43.66;99935.85;102340;1274;5389200;-86
2022/07/17 11:47:32;;;;;;;7.00;1.80;;;;;;;23.14;43.25;99936.24;106472;1274;24263;-88
2022/07/17 11:50:16;;;;;;;4.80;0.90;;;;;;;22.95;43.20;99935.81;106478;1274;22560;-85
2022/07/17 11:53:26;;;;;;;7.40;0.90;;;;;;;22.84;43.59;99939.32;106190;1274;24138;-87
2022/07/17 11:56:10;;;;;;;6.10;1.00;;;;;;;22.79;42.96;99938.24;106311;1274;24511;-83
2022/07/17 11:59:09;;;;;;;4.70;0.70;;;;;;;22.55;43.45;99941.99;106245;1274;22545;-85
2022/07/17 12:01:48;;;;;;;5.00;1.00;;;;;;;22.44;43.65;99938.52;106185;1273;22544;-87
2022/07/17 12:04:22;;;;;;;4.40;0.80;;;;;;;22.46;43.44;99936.42;106267;1274;25675;-87
2022/07/17 12:07:18;;;;;;;6.00;0.80;;;;;;;22.28;42.68;99939.77;106317;1274;22592;-86
2022/07/17 12:10:01;;;;;;;3.00;0.70;;;;;;;22.15;43.39;99941.39;106205;1273;24936;-81
2022/07/17 12:12:41;;;;;;;3.40;0.90;;;;;;;22.21;43.39;99941.85;106149;1274;26548;-86
2022/07/17 12:15:24;;;;;;;6.20;0.90;;;;;;;22.34;43.31;99944.42;106242;1274;22593;-87
2022/07/17 12:17:55;;;;;;;5.30;0.80;;;;;;;22.43;43.06;99947.81;106117;1274;25597;-86
2022/07/17 12:20:27;;;;;;;5.20;0.80;;;;;;;22.47;43.41;99945.44;106297;1273;22766;-84
2022/07/17 12:23:01;;;;;;;5.30;1.10;;;;;;;22.59;42.64;99949.88;106469;1274;22727;-85
2022/07/17 12:25:32;;;;;;;4.20;0.80;;;;;;;22.47;42.77;99950.30;106242;1273;22697;-88
2022/07/17 12:28:02;;;;;;;5.40;0.90;;;;;;;22.41;42.75;99949.32;106041;1274;22583;-82
2022/07/17 12:30:40;;;;;;;7.10;0.80;;;;;;;22.38;42.87;99948.73;106287;1273;22560;-87
2022/07/17 12:33:23;;;;;;;4.30;0.60;;;;;;;22.38;42.91;99947.42;106380;1273;22687;-87
2022/07/17 12:35:52;;;;;;;4.80;0.90;;;;;;;22.33;42.67;99947.30;106085;1272;22567;-86
2022/07/17 12:38:18;;;;;;;5.00;0.90;;;;;;;22.29;42.96;99943.92;106147;1274;25397;-84
2022/07/17 12:40:48;;;;;;;6.20;0.70;;;;;;;22.36;43.10;99948.92;106220;1274;25385;-84
2022/07/17 12:43:19;;;;;;;3.30;0.80;;;;;;;22.40;42.55;99952.88;106365;1273;22623;-83
2022/07/17 12:45:48;;;;;;;6.20;0.70;;;;;;;22.27;42.24;99950.24;106084;1274;22577;-83
2022/07/17 12:48:20;;;;;;;4.20;0.70;;;;;;;22.14;42.15;99956.38;106106;1274;25303;-88
2022/07/17 12:50:49;;;;;;;6.60;0.90;;;;;;;22.04;42.14;99957.35;106345;1274;25238;-85
2022/07/17 12:53:21;;;;;;;4.10;0.80;;;;;;;21.97;42.56;99957.86;106224;1274;25454;-87
2022/07/17 12:55:47;;;;;;;4.10;0.60;;;;;;;21.96;42.15;99956.64;106132;1274;22831;-87